Accueil
Images satellite Prévisions 10 joursClimatMétéo marine Cyclones Foudre AéroportsFAQ Actualités A propos
Météo : Europe Afrique Amérique du Nord Amérique du Sud Asie Australie-Océanie Autres
Langues Contact

Florennes, Belgique

Base aérienne de Florennes

latitude: 50-14N, longitude: 004-39E, altitude: 279 m


METAR: EBFS 272025Z VRB02KT 9999 FEW044 05/M01 Q1023 BLU
TAF: EBFS 271541Z 2719/2807 28005KT 9999 SCT250 BECMG 2802/2806 20006KT 9999 BKN250

Heure: 21:50 (20:50 UTC)

Observation

Le bulletin a été fait il y a 25 minutes, à 20:25 UTC
Vent 2 kt de direction variable
Température 5°C
Humidité 65%
Pression 1023 hPa
Visibilité 10 km ou plus
Quelques nuages à une hauteur de 4400 ft

Changer d'unités

Prévision

Le bulletin a été fait il y a 5 heures et 9 minutes, à 15:41 UTC
Prévision valable du 27 à 19 UTC au 28 à 07 UTC
Vent 5 kt de ouest
Visibilité 10 km ou plus
Nuages épars à une hauteur de 25000 ft
Evoluant progressivement
du 28 à 02 UTC au 28 à 06 UTC
Vent 6 kt de sud/sud-ouest
Visibilité 10 km ou plus
Nuages fragmentés à une hauteur de 25000 ft
Les informations qui figurent sur ce site font l'objet d'une clause de non-responsabilité
Météo : Europe Afrique Amérique du Nord Amérique du Sud Asie Australie-Océanie Autres
Images satellite Prévisions 10 joursClimatMétéo marine Cyclones Foudre AéroportsFAQ Langues Contact Actualités A propos